createdAt,value
2023-08-09T00:01:57.133Z,63.20
2023-08-09T00:04:28.353Z,63.45
2023-08-09T00:06:59.762Z,63.84
2023-08-09T00:09:31.559Z,63.68
2023-08-09T00:12:02.632Z,63.65
2023-08-09T00:14:33.742Z,63.55
2023-08-09T00:17:04.980Z,63.63
2023-08-09T00:19:36.137Z,63.59
2023-08-09T00:22:07.280Z,63.37
2023-08-09T00:24:38.829Z,63.37
2023-08-09T00:27:09.879Z,63.39
2023-08-09T00:29:40.923Z,63.37
2023-08-09T00:32:11.963Z,63.40
2023-08-09T00:34:43.034Z,63.28
2023-08-09T00:37:14.440Z,63.25
2023-08-09T00:39:45.506Z,63.33
2023-08-09T00:42:16.940Z,63.24
2023-08-09T00:44:47.963Z,63.29
2023-08-09T00:47:21.259Z,63.26
2023-08-09T00:52:31.794Z,63.28
2023-08-09T00:55:05.157Z,63.58
2023-08-09T00:57:36.557Z,63.75
2023-08-09T01:00:10.802Z,64.04
2023-08-09T01:02:42.176Z,63.80
2023-08-09T01:05:13.580Z,63.86
2023-08-09T01:07:51.691Z,63.94
2023-08-09T01:10:29.233Z,64.02
2023-08-09T01:13:04.624Z,63.94
2023-08-09T01:15:39.726Z,64.03
2023-08-09T01:18:13.068Z,64.10
2023-08-09T01:20:46.714Z,63.54
2023-08-09T01:23:21.905Z,64.20
2023-08-09T01:25:52.938Z,63.98
2023-08-09T01:28:23.934Z,63.93
2023-08-09T01:30:55.085Z,63.96
2023-08-09T01:33:26.518Z,63.73
2023-08-09T01:36:04.957Z,63.53
2023-08-09T01:38:44.897Z,63.67
2023-08-09T01:41:17.584Z,63.54
2023-08-09T01:43:51.996Z,63.64
2023-08-09T01:46:24.363Z,63.63
2023-08-09T01:49:08.714Z,63.70
2023-08-09T01:51:40.799Z,63.73
2023-08-09T01:54:13.390Z,63.54
2023-08-09T01:56:46.315Z,63.75
2023-08-09T01:59:19.417Z,64.25
2023-08-09T02:01:49.470Z,64.62
2023-08-09T02:04:20.520Z,64.71
2023-08-09T02:06:51.456Z,64.66
2023-08-09T02:09:23.018Z,64.63
2023-08-09T02:11:53.976Z,64.88
2023-08-09T02:14:25.274Z,64.80
2023-08-09T02:16:56.321Z,64.96
2023-08-09T02:19:27.984Z,64.93
2023-08-09T02:21:59.161Z,64.87
2023-08-09T02:24:30.329Z,64.81
2023-08-09T02:27:01.572Z,64.93
2023-08-09T02:29:32.803Z,64.43
2023-08-09T02:32:03.874Z,65.17
2023-08-09T02:34:35.160Z,65.11
2023-08-09T02:37:06.580Z,64.92
2023-08-09T02:39:39.321Z,64.76
2023-08-09T02:42:10.754Z,64.09
2023-08-09T02:44:41.832Z,64.35
2023-08-09T02:47:12.936Z,64.55
2023-08-09T02:49:45.089Z,64.43
2023-08-09T02:52:16.240Z,64.71
2023-08-09T02:54:48.876Z,64.72
2023-08-09T02:57:20.075Z,64.56
2023-08-09T02:59:51.189Z,64.57
2023-08-09T03:02:22.214Z,64.77
2023-08-09T03:04:54.355Z,64.88
2023-08-09T03:07:26.263Z,64.98
2023-08-09T03:10:00.214Z,65.02
2023-08-09T03:12:31.711Z,64.96
2023-08-09T03:15:03.153Z,65.01
2023-08-09T03:17:35.060Z,65.18
2023-08-09T03:20:14.306Z,65.55
2023-08-09T03:22:45.820Z,65.65
2023-08-09T03:25:17.979Z,65.58
2023-08-09T03:27:52.293Z,65.63
2023-08-09T03:30:24.062Z,65.53
2023-08-09T03:32:58.247Z,65.52
2023-08-09T03:35:30.179Z,65.47
2023-08-09T03:38:02.084Z,65.81
2023-08-09T03:40:33.265Z,65.85
2023-08-09T03:43:05.653Z,66.11
2023-08-09T03:45:36.884Z,66.28
2023-08-09T03:48:08.967Z,66.27
2023-08-09T03:50:40.413Z,66.22
2023-08-09T03:53:11.666Z,66.40
2023-08-09T03:55:44.644Z,66.79
2023-08-09T03:58:16.608Z,67.00
2023-08-09T04:00:48.283Z,67.03
2023-08-09T04:03:20.221Z,67.10
2023-08-09T04:05:51.239Z,67.09
2023-08-09T04:08:23.232Z,67.17
2023-08-09T04:10:55.936Z,67.08
2023-08-09T04:13:26.932Z,67.18
2023-08-09T04:15:58.090Z,67.08
2023-08-09T04:18:29.316Z,67.20
2023-08-09T04:21:00.353Z,67.18
2023-08-09T04:23:31.721Z,67.32
2023-08-09T04:26:04.568Z,67.39
2023-08-09T04:28:35.669Z,67.29
2023-08-09T04:31:07.152Z,68.31
2023-08-09T04:33:38.204Z,68.92
2023-08-09T04:36:09.738Z,69.23
2023-08-09T04:38:40.714Z,70.72
2023-08-09T04:41:12.115Z,70.74
2023-08-09T04:43:45.399Z,71.01
2023-08-09T04:46:17.661Z,71.28
2023-08-09T04:48:49.200Z,71.15
2023-08-09T04:51:20.604Z,70.92
2023-08-09T04:53:51.669Z,70.86
2023-08-09T04:56:22.725Z,71.07
2023-08-09T04:58:53.804Z,71.13
2023-08-09T05:01:24.938Z,71.35
2023-08-09T05:03:56.066Z,71.36
2023-08-09T05:06:28.860Z,71.27
2023-08-09T05:08:59.887Z,71.37
2023-08-09T05:11:30.912Z,71.44
2023-08-09T05:14:02.078Z,71.57
2023-08-09T05:16:33.323Z,71.88
2023-08-09T05:19:04.615Z,71.98
2023-08-09T05:21:35.796Z,71.76
2023-08-09T05:24:08.072Z,71.84
2023-08-09T05:26:37.389Z,71.76
2023-08-09T05:29:09.009Z,71.72
2023-08-09T05:31:40.100Z,71.60
2023-08-09T05:34:11.446Z,71.61
2023-08-09T05:36:42.405Z,71.54
2023-08-09T05:39:14.046Z,71.89
2023-08-09T05:41:45.233Z,71.97
2023-08-09T05:44:16.266Z,71.87
2023-08-09T05:46:47.637Z,71.38
2023-08-09T05:49:18.924Z,71.17
2023-08-09T05:51:49.920Z,70.57
2023-08-09T05:54:21.126Z,70.68
2023-08-09T05:56:52.716Z,70.85
2023-08-09T05:59:23.786Z,70.95
2023-08-09T06:01:54.934Z,71.11
2023-08-09T06:04:26.649Z,71.31
2023-08-09T06:06:57.745Z,72.00
2023-08-09T06:09:29.945Z,72.12
2023-08-09T06:12:00.914Z,72.44
2023-08-09T06:14:31.869Z,72.94
2023-08-09T06:17:03.282Z,73.13
2023-08-09T06:19:35.211Z,73.16
2023-08-09T06:22:06.337Z,73.38
2023-08-09T06:24:37.303Z,73.62
2023-08-09T06:27:08.656Z,73.73
2023-08-09T06:29:39.712Z,73.94
2023-08-09T06:32:10.771Z,73.86
2023-08-09T06:34:41.824Z,73.59
2023-08-09T06:37:12.872Z,73.58
2023-08-09T06:39:44.010Z,73.48
2023-08-09T06:42:15.790Z,73.51
2023-08-09T06:44:47.665Z,73.72
2023-08-09T06:47:18.833Z,73.91
2023-08-09T06:49:50.114Z,74.18
2023-08-09T06:52:21.179Z,74.28
2023-08-09T06:54:53.445Z,74.14
2023-08-09T06:57:27.146Z,73.91
2023-08-09T06:59:58.998Z,73.87
2023-08-09T07:02:30.010Z,73.96
2023-08-09T07:05:16.215Z,74.08
2023-08-09T07:07:48.630Z,74.05
2023-08-09T07:10:20.188Z,74.14
2023-08-09T07:12:51.342Z,74.11
2023-08-09T07:15:22.575Z,73.82
2023-08-09T07:17:54.157Z,73.63
2023-08-09T07:20:25.392Z,73.84
2023-08-09T07:22:56.364Z,74.22
2023-08-09T07:25:27.968Z,74.32
2023-08-09T07:27:59.105Z,74.23
2023-08-09T07:30:30.382Z,73.60
2023-08-09T07:33:01.580Z,73.61
2023-08-09T07:35:32.698Z,73.41
2023-08-09T07:38:03.779Z,73.36
2023-08-09T07:40:35.365Z,73.02
2023-08-09T07:43:06.713Z,72.82
2023-08-09T07:45:38.206Z,72.67
2023-08-09T07:48:12.924Z,72.36
2023-08-09T07:50:45.784Z,72.16
2023-08-09T07:53:20.147Z,72.48
2023-08-09T07:55:57.441Z,72.95
2023-08-09T07:58:28.533Z,72.90
2023-08-09T08:01:00.372Z,71.95
2023-08-09T08:03:31.802Z,71.60
2023-08-09T08:06:08.624Z,70.31
2023-08-09T08:08:42.666Z,69.90
2023-08-09T08:11:13.775Z,68.85
2023-08-09T08:13:45.012Z,67.76
2023-08-09T08:16:18.660Z,66.67
2023-08-09T08:18:49.884Z,66.68
2023-08-09T08:21:21.130Z,66.65
2023-08-09T08:23:55.696Z,65.48
2023-08-09T08:26:26.919Z,63.76
2023-08-09T08:28:58.091Z,63.12
2023-08-09T08:31:29.178Z,62.22
2023-08-09T08:34:01.015Z,61.47
2023-08-09T08:36:32.177Z,60.96
2023-08-09T08:39:09.065Z,59.78
2023-08-09T08:41:42.557Z,59.85
2023-08-09T08:44:14.250Z,60.65
2023-08-09T08:46:47.538Z,60.76
2023-08-09T08:49:23.559Z,60.43
2023-08-09T08:52:01.295Z,60.83
2023-08-09T08:54:37.972Z,61.50
2023-08-09T08:57:10.072Z,62.29
2023-08-09T08:59:40.610Z,63.02
2023-08-09T09:02:11.963Z,63.37
2023-08-09T09:04:44.403Z,63.66
2023-08-09T09:07:15.794Z,64.36
2023-08-09T09:10:00.959Z,64.76
2023-08-09T09:12:32.017Z,65.27
2023-08-09T09:15:04.887Z,65.23
2023-08-09T09:17:40.498Z,65.06
2023-08-09T09:20:23.206Z,64.88
2023-08-09T09:22:55.482Z,64.63
2023-08-09T09:25:27.009Z,64.09
2023-08-09T09:28:01.896Z,61.67
2023-08-09T09:30:34.056Z,62.04
2023-08-09T09:33:06.273Z,62.21
2023-08-09T09:35:42.190Z,62.10
2023-08-09T09:38:13.346Z,61.69
2023-08-09T09:40:46.753Z,62.22
2023-08-09T09:43:21.519Z,62.11
2023-08-09T09:45:56.812Z,61.89
2023-08-09T09:48:31.700Z,61.90
2023-08-09T09:51:06.333Z,61.35
2023-08-09T09:53:41.090Z,61.11
2023-08-09T09:56:12.444Z,60.25
2023-08-09T09:58:44.412Z,59.03
2023-08-09T10:01:19.656Z,58.99
2023-08-09T10:03:55.915Z,57.95
2023-08-09T10:06:30.665Z,57.89
2023-08-09T10:09:06.153Z,58.07
2023-08-09T10:11:39.283Z,57.41
2023-08-09T10:14:13.460Z,56.18
2023-08-09T10:16:48.026Z,55.43
2023-08-09T10:19:24.602Z,53.82
2023-08-09T10:22:03.506Z,54.25
2023-08-09T10:24:44.555Z,53.67
2023-08-09T10:27:35.521Z,52.87
2023-08-09T10:30:15.584Z,53.49
2023-08-09T10:33:13.171Z,53.62
2023-08-09T10:35:53.620Z,53.83
2023-08-09T10:38:47.198Z,54.58
2023-08-09T10:41:29.095Z,55.26
2023-08-09T10:44:06.863Z,55.36
2023-08-09T10:46:38.459Z,54.70
2023-08-09T10:49:13.776Z,55.53
2023-08-09T10:51:49.600Z,54.55
2023-08-09T10:54:28.490Z,53.39
2023-08-09T10:57:09.914Z,53.10
2023-08-09T10:59:47.622Z,53.08
2023-08-09T11:02:20.814Z,51.98
2023-08-09T11:04:52.193Z,49.03
2023-08-09T11:07:26.439Z,48.64
2023-08-09T11:10:01.246Z,48.89
2023-08-09T11:12:33.229Z,50.29
2023-08-09T11:15:08.135Z,50.01
2023-08-09T11:17:48.886Z,49.91
2023-08-09T11:20:22.884Z,50.12
2023-08-09T11:22:58.776Z,49.94
2023-08-09T11:25:32.928Z,48.67
2023-08-09T11:28:07.083Z,47.17
2023-08-09T11:30:39.690Z,47.39
2023-08-09T11:33:12.375Z,47.61
2023-08-09T11:35:47.134Z,46.84
2023-08-09T11:38:19.386Z,47.24
2023-08-09T11:40:54.207Z,47.46
2023-08-09T11:43:28.087Z,46.46
2023-08-09T11:46:00.151Z,46.60
2023-08-09T11:48:33.346Z,45.71
2023-08-09T11:51:14.986Z,45.86
2023-08-09T11:53:47.682Z,46.67
2023-08-09T11:56:21.005Z,44.67
2023-08-09T11:58:53.774Z,43.30
2023-08-09T12:01:26.912Z,43.00
2023-08-09T12:03:59.892Z,43.77
2023-08-09T12:06:43.878Z,43.79
2023-08-09T12:09:32.889Z,44.28
2023-08-09T12:12:08.555Z,44.05
2023-08-09T12:14:40.845Z,44.50
2023-08-09T12:17:22.706Z,43.29
2023-08-09T12:19:56.872Z,44.27
2023-08-09T12:22:29.192Z,44.61
2023-08-09T12:25:01.069Z,43.62
2023-08-09T12:27:33.040Z,43.23
2023-08-09T12:30:06.864Z,42.67
2023-08-09T12:32:37.908Z,42.87
2023-08-09T12:35:12.903Z,42.21
2023-08-09T12:37:46.888Z,41.72
2023-08-09T12:40:18.642Z,41.36
2023-08-09T12:42:52.516Z,41.24
2023-08-09T12:45:24.111Z,41.54
2023-08-09T12:47:55.590Z,42.16
2023-08-09T12:50:26.660Z,42.08
2023-08-09T12:53:07.803Z,42.85
2023-08-09T12:55:39.385Z,42.67
2023-08-09T12:58:11.120Z,41.36
2023-08-09T13:00:42.116Z,39.99
2023-08-09T13:03:13.183Z,40.28
2023-08-09T13:05:44.960Z,40.45
2023-08-09T13:08:16.045Z,39.91
2023-08-09T13:10:47.270Z,40.97
2023-08-09T13:13:18.364Z,40.77
2023-08-09T13:15:49.470Z,41.47
2023-08-09T13:18:20.837Z,41.24
2023-08-09T13:20:54.817Z,41.72
2023-08-09T13:23:27.545Z,41.74
2023-08-09T13:25:58.706Z,40.30
2023-08-09T13:28:30.228Z,40.07
2023-08-09T13:31:02.551Z,41.00
2023-08-09T13:33:33.682Z,40.48
2023-08-09T13:36:04.880Z,40.22
2023-08-09T13:38:44.028Z,40.77
2023-08-09T13:41:15.932Z,40.72
2023-08-09T13:43:47.317Z,41.25
2023-08-09T13:46:18.364Z,40.43
2023-08-09T13:48:49.808Z,40.83
2023-08-09T13:51:20.823Z,40.65
2023-08-09T13:53:53.752Z,40.60
2023-08-09T13:56:24.717Z,40.98
2023-08-09T13:58:56.401Z,41.24
2023-08-09T14:01:30.620Z,40.84
2023-08-09T14:04:03.625Z,41.21
2023-08-09T14:06:34.853Z,42.10
2023-08-09T14:09:09.460Z,41.62
2023-08-09T14:11:40.979Z,41.76
2023-08-09T14:14:12.044Z,41.54
2023-08-09T14:16:43.619Z,42.13
2023-08-09T14:19:16.316Z,41.61
2023-08-09T14:21:47.800Z,41.17
2023-08-09T14:24:19.861Z,40.56
2023-08-09T14:26:49.320Z,40.61
2023-08-09T14:29:20.294Z,40.39
2023-08-09T14:31:51.608Z,40.56
2023-08-09T14:34:24.655Z,40.76
2023-08-09T14:36:55.749Z,40.50
2023-08-09T14:39:28.489Z,40.54
2023-08-09T14:42:02.238Z,40.42
2023-08-09T14:44:36.331Z,40.50
2023-08-09T14:47:09.801Z,40.70
2023-08-09T14:49:43.828Z,40.47
2023-08-09T14:52:15.397Z,40.52
2023-08-09T14:54:48.772Z,40.46
2023-08-09T14:57:22.069Z,40.83
2023-08-09T14:59:57.235Z,41.25
2023-08-09T15:02:28.432Z,41.43
2023-08-09T15:04:59.483Z,41.01
2023-08-09T15:07:30.897Z,40.61
2023-08-09T15:10:04.769Z,41.10
2023-08-09T15:12:38.533Z,41.35
2023-08-09T15:15:12.052Z,41.25
2023-08-09T15:17:45.751Z,40.46
2023-08-09T15:20:17.605Z,40.41
2023-08-09T15:22:49.826Z,40.68
2023-08-09T15:25:25.188Z,40.27
2023-08-09T15:27:56.522Z,40.04
2023-08-09T15:30:28.594Z,40.54
2023-08-09T15:32:59.573Z,40.88
2023-08-09T15:35:30.870Z,41.07
2023-08-09T15:38:02.212Z,40.04
2023-08-09T15:40:33.206Z,40.41
2023-08-09T15:43:04.599Z,40.72
2023-08-09T15:45:39.155Z,41.10
2023-08-09T15:48:10.861Z,40.96
2023-08-09T15:50:42.315Z,40.97
2023-08-09T15:53:13.493Z,41.44
2023-08-09T15:55:45.868Z,41.22
2023-08-09T15:58:17.214Z,41.63
2023-08-09T16:00:55.377Z,41.22
2023-08-09T16:03:27.700Z,41.23
2023-08-09T16:05:59.327Z,41.47
2023-08-09T16:08:31.049Z,41.49
2023-08-09T16:11:02.097Z,41.99
2023-08-09T16:13:33.298Z,42.03
2023-08-09T16:16:06.204Z,42.13
2023-08-09T16:18:39.917Z,41.55
2023-08-09T16:21:11.636Z,41.41
2023-08-09T16:23:42.916Z,41.28
2023-08-09T16:26:17.316Z,41.07
2023-08-09T16:28:48.380Z,41.24
2023-08-09T16:31:19.446Z,41.56
2023-08-09T16:33:50.491Z,41.82
2023-08-09T16:36:21.822Z,42.10
2023-08-09T16:38:52.846Z,42.19
2023-08-09T16:41:24.103Z,46.83
2023-08-09T16:43:57.119Z,48.76
2023-08-09T16:46:28.425Z,49.89
2023-08-09T16:48:59.638Z,48.14
2023-08-09T16:51:30.752Z,47.33
2023-08-09T16:54:01.868Z,47.65
2023-08-09T16:56:33.379Z,48.00
2023-08-09T16:59:05.911Z,47.93
2023-08-09T17:01:36.915Z,47.81
2023-08-09T17:04:08.641Z,47.57
2023-08-09T17:06:39.837Z,46.99
2023-08-09T17:09:11.442Z,46.67
2023-08-09T17:11:42.518Z,46.91
2023-08-09T17:14:14.385Z,46.46
2023-08-09T17:16:45.520Z,46.69
2023-08-09T17:19:16.808Z,47.25
2023-08-09T17:21:48.007Z,47.27
2023-08-09T17:24:19.188Z,48.59
2023-08-09T17:26:50.679Z,48.63
2023-08-09T17:29:21.844Z,48.37
2023-08-09T17:31:53.267Z,48.87
2023-08-09T17:34:24.459Z,47.58
2023-08-09T17:36:55.404Z,46.76
2023-08-09T17:39:26.714Z,48.02
2023-08-09T17:42:01.702Z,47.95
2023-08-09T17:44:33.228Z,48.36
2023-08-09T17:47:04.803Z,48.70
2023-08-09T17:49:36.354Z,48.12
2023-08-09T17:52:08.801Z,47.79
2023-08-09T17:54:40.322Z,48.54
2023-08-09T17:57:11.899Z,48.14
2023-08-09T17:59:43.060Z,47.22
2023-08-09T18:02:14.191Z,48.07
2023-08-09T18:04:45.347Z,48.03
2023-08-09T18:07:16.841Z,48.25
2023-08-09T18:09:49.652Z,48.36
2023-08-09T18:12:20.694Z,48.71
2023-08-09T18:14:52.094Z,49.43
2023-08-09T18:17:25.414Z,49.45
2023-08-09T18:20:00.037Z,49.17
2023-08-09T18:22:34.090Z,48.82
2023-08-09T18:25:07.236Z,48.76
2023-08-09T18:27:38.789Z,48.57
2023-08-09T18:30:11.895Z,48.84
2023-08-09T18:32:43.494Z,48.92
2023-08-09T18:35:18.548Z,49.41
2023-08-09T18:37:50.510Z,49.59
2023-08-09T18:40:23.090Z,49.24
2023-08-09T18:42:54.470Z,49.74
2023-08-09T18:45:25.647Z,50.06
2023-08-09T18:47:56.953Z,50.01
2023-08-09T18:50:28.197Z,49.77
2023-08-09T18:52:59.762Z,50.15
2023-08-09T18:55:30.898Z,50.38
2023-08-09T18:58:02.228Z,50.81
2023-08-09T19:00:36.596Z,51.04
2023-08-09T19:03:09.017Z,51.47
2023-08-09T19:05:40.891Z,50.90
2023-08-09T19:08:12.000Z,50.89
2023-08-09T19:10:43.124Z,51.74
2023-08-09T19:13:14.465Z,52.17
2023-08-09T19:15:45.807Z,52.21
2023-08-09T19:18:17.057Z,52.75
2023-08-09T19:20:48.724Z,52.93
2023-08-09T19:23:19.930Z,53.12
2023-08-09T19:25:50.894Z,53.48
2023-08-09T19:28:22.556Z,53.50
2023-08-09T19:30:53.992Z,53.95
2023-08-09T19:33:32.560Z,54.38
2023-08-09T19:36:04.235Z,54.60
2023-08-09T19:38:35.629Z,54.82
2023-08-09T19:41:07.148Z,54.90
2023-08-09T19:43:38.090Z,55.00
2023-08-09T19:46:09.091Z,55.50
2023-08-09T19:48:41.925Z,56.46
2023-08-09T19:51:13.178Z,57.46
2023-08-09T19:53:44.721Z,59.14
2023-08-09T19:56:16.955Z,59.90
2023-08-09T19:58:46.341Z,58.58
2023-08-09T20:01:17.442Z,58.70
2023-08-09T20:03:48.886Z,58.71
2023-08-09T20:06:20.448Z,56.99
2023-08-09T20:08:51.409Z,57.96
2023-08-09T20:11:22.415Z,56.85
2023-08-09T20:13:53.397Z,56.12
2023-08-09T20:16:24.899Z,57.04
2023-08-09T20:18:56.299Z,57.57
2023-08-09T20:21:27.433Z,57.56
2023-08-09T20:23:58.490Z,56.99
2023-08-09T20:26:29.651Z,57.08
2023-08-09T20:29:00.670Z,57.36
2023-08-09T20:31:32.144Z,57.05
2023-08-09T20:34:03.383Z,57.03
2023-08-09T20:36:34.501Z,56.96
2023-08-09T20:39:05.813Z,56.52
2023-08-09T20:41:37.104Z,55.89
2023-08-09T20:44:08.946Z,56.12
2023-08-09T20:46:40.318Z,56.50
2023-08-09T20:49:11.999Z,57.13
2023-08-09T20:51:43.133Z,57.81
2023-08-09T20:54:14.104Z,58.24
2023-08-09T20:56:45.052Z,58.87
2023-08-09T20:59:16.044Z,59.26
2023-08-09T21:01:47.283Z,59.72
2023-08-09T21:04:18.491Z,60.05
2023-08-09T21:06:50.350Z,60.22
2023-08-09T21:09:21.324Z,60.61
2023-08-09T21:11:52.466Z,61.32
2023-08-09T21:14:24.593Z,62.17
2023-08-09T21:16:55.687Z,63.87
2023-08-09T21:19:26.777Z,62.67
2023-08-09T21:21:58.040Z,61.75
2023-08-09T21:24:29.935Z,61.38
2023-08-09T21:27:02.521Z,61.15
2023-08-09T21:29:32.537Z,60.82
2023-08-09T21:32:04.189Z,60.47
2023-08-09T21:34:35.722Z,60.41
2023-08-09T21:37:06.978Z,60.41
2023-08-09T21:39:38.050Z,60.81
2023-08-09T21:42:09.624Z,61.27
2023-08-09T21:44:40.733Z,61.75
2023-08-09T21:47:11.805Z,61.39
2023-08-09T21:49:45.408Z,61.23
2023-08-09T21:52:16.598Z,61.27
2023-08-09T21:54:47.760Z,61.24
2023-08-09T21:57:18.754Z,61.25
2023-08-09T21:59:49.825Z,61.08
2023-08-09T22:02:21.129Z,60.95
2023-08-09T22:04:52.338Z,61.01
2023-08-09T22:07:23.496Z,60.97
2023-08-09T22:09:54.534Z,61.03
2023-08-09T22:12:25.557Z,60.87
2023-08-09T22:14:56.575Z,60.86
2023-08-09T22:17:27.872Z,60.79
2023-08-09T22:19:58.930Z,60.90
2023-08-09T22:22:30.238Z,60.89
2023-08-09T22:25:01.481Z,61.00
2023-08-09T22:27:33.030Z,60.88
2023-08-09T22:30:04.601Z,60.73
2023-08-09T22:32:35.646Z,60.63
2023-08-09T22:35:07.591Z,60.54
2023-08-09T22:37:38.864Z,60.66
2023-08-09T22:40:11.980Z,60.69
2023-08-09T22:42:42.909Z,60.55
2023-08-09T22:45:14.370Z,60.46
2023-08-09T22:47:45.376Z,60.41
2023-08-09T22:50:17.019Z,60.28
2023-08-09T22:52:47.996Z,60.19
2023-08-09T22:55:19.543Z,60.27
2023-08-09T22:57:50.525Z,60.18
2023-08-09T23:00:23.038Z,60.26
2023-08-09T23:02:54.332Z,60.24
2023-08-09T23:05:25.901Z,60.11
2023-08-09T23:07:56.981Z,60.06
2023-08-09T23:10:28.129Z,60.05
2023-08-09T23:12:59.529Z,59.98
2023-08-09T23:15:32.339Z,59.97
2023-08-09T23:18:04.660Z,60.07
2023-08-09T23:20:36.970Z,60.20
2023-08-09T23:23:08.113Z,60.10
2023-08-09T23:25:39.191Z,60.22
2023-08-09T23:28:10.504Z,60.32
2023-08-09T23:30:42.082Z,60.50
2023-08-09T23:33:13.552Z,60.55
2023-08-09T23:35:44.637Z,60.56
2023-08-09T23:38:15.996Z,60.53
2023-08-09T23:40:47.017Z,60.65
2023-08-09T23:43:18.316Z,60.71
2023-08-09T23:45:49.279Z,61.00
2023-08-09T23:48:20.260Z,61.43
2023-08-09T23:50:51.310Z,61.69
2023-08-09T23:53:22.310Z,61.80
2023-08-09T23:55:53.365Z,61.82
2023-08-09T23:58:25.792Z,61.76
